createdAt,value
2023-03-12T00:01:33.323Z,3.00
2023-03-12T00:04:02.318Z,2.83
2023-03-12T00:06:29.713Z,2.67
2023-03-12T00:08:57.112Z,3.10
2023-03-12T00:11:25.863Z,3.70
2023-03-12T00:13:54.390Z,4.20
2023-03-12T00:16:22.331Z,5.20
2023-03-12T00:18:52.519Z,5.13
2023-03-12T00:21:20.330Z,4.93
2023-03-12T00:23:48.459Z,5.30
2023-03-12T00:26:16.351Z,5.20
2023-03-12T00:28:45.151Z,5.40
2023-03-12T00:31:16.819Z,5.03
2023-03-12T00:33:44.503Z,4.33
2023-03-12T00:36:12.025Z,5.07
2023-03-12T00:38:39.418Z,4.80
2023-03-12T00:41:06.884Z,5.60
2023-03-12T00:43:34.451Z,4.90
2023-03-12T00:46:07.100Z,5.03
2023-03-12T00:48:34.537Z,4.90
2023-03-12T00:51:01.900Z,5.57
2023-03-12T00:53:29.546Z,5.43
2023-03-12T00:55:56.911Z,5.03
2023-03-12T00:58:24.569Z,5.10
2023-03-12T01:00:52.427Z,5.40
2023-03-12T01:03:21.309Z,4.63
2023-03-12T01:05:53.862Z,5.03
2023-03-12T01:08:21.729Z,5.23
2023-03-12T01:10:49.416Z,4.87
2023-03-12T01:13:16.882Z,4.83
2023-03-12T01:15:44.682Z,4.57
2023-03-12T01:18:12.131Z,4.30
2023-03-12T01:20:41.525Z,4.90
2023-03-12T01:23:08.992Z,3.73
2023-03-12T01:25:36.438Z,3.93
2023-03-12T01:28:04.222Z,3.90
2023-03-12T01:30:31.880Z,3.23
2023-03-12T01:32:59.475Z,3.37
2023-03-12T01:35:27.040Z,3.30
2023-03-12T01:37:56.549Z,3.20
2023-03-12T01:40:27.738Z,3.40
2023-03-12T01:42:56.617Z,3.33
2023-03-12T01:45:42.868Z,3.10
2023-03-12T01:48:11.056Z,3.43
2023-03-12T01:50:38.783Z,3.03
2023-03-12T01:53:07.644Z,3.30
2023-03-12T01:55:35.375Z,3.17
2023-03-12T01:58:03.287Z,3.47
2023-03-12T02:00:30.784Z,3.30
2023-03-12T02:02:59.716Z,3.50
2023-03-12T02:05:30.024Z,3.30
2023-03-12T02:07:57.588Z,3.00
2023-03-12T02:10:26.688Z,3.20
2023-03-12T02:12:54.222Z,3.43
2023-03-12T02:15:22.050Z,3.50
2023-03-12T02:17:49.483Z,3.80
2023-03-12T02:20:19.744Z,3.00
2023-03-12T02:22:50.354Z,3.40
2023-03-12T02:25:27.456Z,3.37
2023-03-12T02:27:55.173Z,3.47
2023-03-12T02:30:22.984Z,2.90
2023-03-12T02:32:51.157Z,3.20
2023-03-12T02:35:18.697Z,3.53
2023-03-12T02:37:50.085Z,2.73
2023-03-12T02:40:22.530Z,3.00
2023-03-12T02:42:51.384Z,2.90
2023-03-12T02:45:19.343Z,3.27
2023-03-12T02:47:46.768Z,2.97
2023-03-12T02:50:14.545Z,3.40
2023-03-12T02:52:42.212Z,3.20
2023-03-12T02:55:10.831Z,2.67
2023-03-12T02:57:38.446Z,2.93
2023-03-12T03:00:12.223Z,2.80
2023-03-12T03:02:41.921Z,3.13
2023-03-12T03:05:10.643Z,2.80
2023-03-12T03:07:38.333Z,2.97
2023-03-12T03:10:06.603Z,2.70
2023-03-12T03:12:35.024Z,3.30
2023-03-12T03:15:03.143Z,2.73
2023-03-12T03:17:31.931Z,3.10
2023-03-12T03:19:59.368Z,3.23
2023-03-12T03:22:26.827Z,3.17
2023-03-12T03:24:54.315Z,3.30
2023-03-12T03:27:21.779Z,3.47
2023-03-12T03:32:16.627Z,3.37
2023-03-12T03:34:45.433Z,3.30
2023-03-12T03:37:12.923Z,3.40
2023-03-12T03:39:40.606Z,3.13
2023-03-12T03:42:08.182Z,2.67
2023-03-12T03:44:35.822Z,2.80
2023-03-12T03:47:03.702Z,2.90
2023-03-12T03:49:31.233Z,2.93
2023-03-12T03:52:00.038Z,3.00
2023-03-12T03:54:33.894Z,3.40
2023-03-12T03:57:02.108Z,3.47
2023-03-12T03:59:29.700Z,3.50
2023-03-12T04:02:02.196Z,3.27
2023-03-12T04:04:31.452Z,3.73
2023-03-12T04:07:00.185Z,3.57
2023-03-12T04:09:27.937Z,3.57
2023-03-12T04:11:55.441Z,4.00
2023-03-12T04:14:22.925Z,3.87
2023-03-12T04:16:51.088Z,3.63
2023-03-12T04:19:18.590Z,4.10
2023-03-12T04:21:46.013Z,4.33
2023-03-12T04:24:16.256Z,4.00
2023-03-12T04:26:44.879Z,4.33
2023-03-12T04:29:12.867Z,3.63
2023-03-12T04:31:41.725Z,4.30
2023-03-12T04:34:09.221Z,3.90
2023-03-12T04:36:36.916Z,3.97
2023-03-12T04:39:07.074Z,4.10
2023-03-12T04:41:36.011Z,3.93
2023-03-12T04:44:13.047Z,4.10
2023-03-12T04:46:41.485Z,3.97
2023-03-12T04:49:10.038Z,3.77
2023-03-12T04:51:39.055Z,3.80
2023-03-12T04:54:07.900Z,4.10
2023-03-12T04:56:38.134Z,3.63
2023-03-12T04:59:05.968Z,4.20
2023-03-12T05:01:33.956Z,3.67
2023-03-12T05:04:08.524Z,4.00
2023-03-12T05:06:36.267Z,3.87
2023-03-12T05:09:04.093Z,4.27
2023-03-12T05:11:32.095Z,4.63
2023-03-12T05:14:00.870Z,4.67
2023-03-12T05:16:29.735Z,5.20
2023-03-12T05:18:57.357Z,5.20
2023-03-12T05:21:25.881Z,4.50
2023-03-12T05:23:55.567Z,4.60
2023-03-12T05:26:26.954Z,4.50
2023-03-12T05:29:02.312Z,5.00
2023-03-12T05:31:32.937Z,7.70
2023-03-12T05:34:00.849Z,7.97
2023-03-12T05:36:28.611Z,8.53
2023-03-12T05:38:56.184Z,9.30
2023-03-12T05:41:26.672Z,8.67
2023-03-12T05:43:58.078Z,8.57
2023-03-12T05:46:27.524Z,7.90
2023-03-12T05:48:55.292Z,8.47
2023-03-12T05:51:23.055Z,7.37
2023-03-12T05:53:50.606Z,7.57
2023-03-12T05:56:18.490Z,7.70
2023-03-12T05:58:46.011Z,8.30
2023-03-12T06:01:14.609Z,7.97
2023-03-12T06:03:43.778Z,7.07
2023-03-12T06:06:11.517Z,7.63
2023-03-12T06:08:39.767Z,8.07
2023-03-12T06:11:07.240Z,8.07
2023-03-12T06:13:34.795Z,7.30
2023-03-12T06:16:03.070Z,7.07
2023-03-12T06:18:30.502Z,7.47
2023-03-12T06:21:09.553Z,7.70
2023-03-12T06:23:37.047Z,7.13
2023-03-12T06:26:05.124Z,7.50
2023-03-12T06:28:32.533Z,7.37
2023-03-12T06:30:59.921Z,7.10
2023-03-12T06:33:27.378Z,7.33
2023-03-12T06:35:55.775Z,7.50
2023-03-12T06:38:24.599Z,7.17
2023-03-12T06:40:55.457Z,7.67
2023-03-12T06:43:22.978Z,7.40
2023-03-12T06:45:50.424Z,7.53
2023-03-12T06:48:17.825Z,7.57
2023-03-12T06:50:45.203Z,7.53
2023-03-12T06:53:12.716Z,7.73
2023-03-12T06:55:41.512Z,7.20
2023-03-12T06:58:08.913Z,7.23
2023-03-12T07:00:36.343Z,6.43
2023-03-12T07:03:03.788Z,6.80
2023-03-12T07:05:31.315Z,6.87
2023-03-12T07:07:58.724Z,7.30
2023-03-12T07:10:28.020Z,7.13
2023-03-12T07:12:57.407Z,7.20
2023-03-12T07:15:24.892Z,7.40
2023-03-12T07:17:52.357Z,6.83
2023-03-12T07:20:19.854Z,7.13
2023-03-12T07:22:47.447Z,6.93
2023-03-12T07:25:15.815Z,6.97
2023-03-12T07:27:44.142Z,6.53
2023-03-12T07:30:13.533Z,6.87
2023-03-12T07:32:41.826Z,7.17
2023-03-12T07:35:09.612Z,7.40
2023-03-12T07:37:37.048Z,7.50
2023-03-12T07:40:07.226Z,6.60
2023-03-12T07:42:34.890Z,7.03
2023-03-12T07:45:04.129Z,6.60
2023-03-12T07:47:32.938Z,6.17
2023-03-12T07:50:01.825Z,6.67
2023-03-12T07:52:29.364Z,7.30
2023-03-12T07:54:58.465Z,6.27
2023-03-12T07:57:25.933Z,6.73
2023-03-12T07:59:53.456Z,6.40
2023-03-12T08:02:21.391Z,6.33
2023-03-12T08:04:50.232Z,6.60
2023-03-12T08:07:17.791Z,6.60
2023-03-12T08:09:45.688Z,6.67
2023-03-12T08:12:13.364Z,6.07
2023-03-12T08:14:40.798Z,5.60
2023-03-12T08:17:08.302Z,4.83
2023-03-12T08:19:35.720Z,5.50
2023-03-12T08:22:04.500Z,4.17
2023-03-12T08:24:31.920Z,3.83
2023-03-12T08:26:59.264Z,3.10
2023-03-12T08:29:26.678Z,3.17
2023-03-12T08:32:04.605Z,2.80
2023-03-12T08:34:33.061Z,2.80
2023-03-12T08:37:00.661Z,3.07
2023-03-12T08:39:29.686Z,3.00
2023-03-12T08:41:57.092Z,2.53
2023-03-12T08:44:24.583Z,2.57
2023-03-12T08:46:52.369Z,2.70
2023-03-12T08:49:20.088Z,2.23
2023-03-12T08:51:47.789Z,2.37
2023-03-12T08:54:15.228Z,2.07
2023-03-12T08:56:44.328Z,2.30
2023-03-12T08:59:12.168Z,1.90
2023-03-12T09:01:41.770Z,2.37
2023-03-12T09:04:11.027Z,2.60
2023-03-12T09:06:38.697Z,2.20
2023-03-12T09:09:08.905Z,2.27
2023-03-12T09:11:36.831Z,2.30
2023-03-12T09:14:42.664Z,2.13
2023-03-12T09:16:52.987Z,2.27
2023-03-12T09:19:20.576Z,2.27
2023-03-12T09:21:48.034Z,2.40
2023-03-12T09:24:15.422Z,2.37
2023-03-12T09:26:42.818Z,2.37
2023-03-12T09:29:11.543Z,2.40
2023-03-12T09:31:38.950Z,2.23
2023-03-12T09:34:06.379Z,2.40
2023-03-12T09:36:33.862Z,2.17
2023-03-12T09:39:02.329Z,2.57
2023-03-12T09:41:31.106Z,2.13
2023-03-12T09:43:59.752Z,2.40
2023-03-12T09:46:30.727Z,2.47
2023-03-12T09:48:59.163Z,2.30
2023-03-12T09:51:29.816Z,2.30
2023-03-12T09:53:59.315Z,2.43
2023-03-12T09:56:27.167Z,2.33
2023-03-12T09:58:56.049Z,2.50
2023-03-12T10:01:29.478Z,2.50
2023-03-12T10:04:11.821Z,2.67
2023-03-12T10:06:46.875Z,2.10
2023-03-12T10:09:25.449Z,2.37
2023-03-12T10:11:56.855Z,2.40
2023-03-12T10:14:33.864Z,2.40
2023-03-12T10:17:37.140Z,1.97
2023-03-12T10:20:29.405Z,2.13
2023-03-12T10:23:21.643Z,2.33
2023-03-12T10:25:56.776Z,2.50
2023-03-12T10:28:35.203Z,1.90
2023-03-12T10:31:06.138Z,2.20
2023-03-12T10:33:39.803Z,2.00
2023-03-12T10:36:11.036Z,2.07
2023-03-12T10:38:39.863Z,1.97
2023-03-12T10:41:13.975Z,1.90
2023-03-12T10:43:42.179Z,1.77
2023-03-12T10:46:18.384Z,1.60
2023-03-12T10:48:45.864Z,1.50
2023-03-12T10:51:13.989Z,1.40
2023-03-12T10:53:44.709Z,1.57
2023-03-12T10:56:13.455Z,1.27
2023-03-12T10:58:42.678Z,1.57
2023-03-12T11:01:17.745Z,1.70
2023-03-12T11:03:45.916Z,1.20
2023-03-12T11:06:20.988Z,1.60
2023-03-12T11:09:16.334Z,1.43
2023-03-12T11:11:47.357Z,1.60
2023-03-12T11:14:17.420Z,1.57
2023-03-12T11:16:44.992Z,1.20
2023-03-12T11:19:13.760Z,1.30
2023-03-12T11:21:41.468Z,1.40
2023-03-12T11:24:12.111Z,1.53
2023-03-12T11:26:44.819Z,1.10
2023-03-12T11:29:17.428Z,1.30
2023-03-12T11:31:47.344Z,1.13
2023-03-12T11:34:18.237Z,1.10
2023-03-12T11:36:49.720Z,1.50
2023-03-12T11:39:24.212Z,1.20
2023-03-12T11:42:08.120Z,1.10
2023-03-12T11:44:37.794Z,1.10
2023-03-12T11:47:11.016Z,0.90
2023-03-12T11:50:02.563Z,1.10
2023-03-12T11:52:36.282Z,1.00
2023-03-12T11:55:18.390Z,1.00
2023-03-12T11:57:49.539Z,1.10
2023-03-12T12:00:17.739Z,1.10
2023-03-12T12:03:09.551Z,1.27
2023-03-12T12:05:48.966Z,1.27
2023-03-12T12:08:28.387Z,1.73
2023-03-12T12:11:01.601Z,1.47
2023-03-12T12:13:32.313Z,1.50
2023-03-12T12:16:05.251Z,1.50
2023-03-12T12:18:42.589Z,1.87
2023-03-12T12:21:17.068Z,1.60
2023-03-12T12:23:54.579Z,1.60
2023-03-12T12:26:26.599Z,1.80
2023-03-12T12:28:57.444Z,1.40
2023-03-12T12:31:30.229Z,2.13
2023-03-12T12:34:07.772Z,1.73
2023-03-12T12:36:35.892Z,1.60
2023-03-12T12:39:06.561Z,1.90
2023-03-12T12:41:36.705Z,1.70
2023-03-12T12:44:06.270Z,1.50
2023-03-12T12:46:35.263Z,1.53
2023-03-12T12:49:04.368Z,1.73
2023-03-12T12:51:34.576Z,1.70
2023-03-12T12:54:03.999Z,1.50
2023-03-12T12:56:33.848Z,1.30
2023-03-12T12:59:21.436Z,1.40
2023-03-12T13:01:49.642Z,1.60
2023-03-12T13:04:18.752Z,1.40
2023-03-12T13:06:56.401Z,1.50
2023-03-12T13:09:35.077Z,1.60
2023-03-12T13:12:08.508Z,1.53
2023-03-12T13:14:39.285Z,2.33
2023-03-12T13:17:08.088Z,1.50
2023-03-12T13:19:40.549Z,1.53
2023-03-12T13:22:11.428Z,1.60
2023-03-12T13:24:44.274Z,1.70
2023-03-12T13:27:15.341Z,1.50
2023-03-12T13:29:44.125Z,1.47
2023-03-12T13:32:31.868Z,1.90
2023-03-12T13:34:59.368Z,1.90
2023-03-12T13:37:57.376Z,2.10
2023-03-12T13:40:38.323Z,2.70
2023-03-12T13:43:11.417Z,2.30
2023-03-12T13:45:55.111Z,2.50
2023-03-12T13:48:23.486Z,1.90
2023-03-12T13:50:52.229Z,1.50
2023-03-12T13:53:23.030Z,2.20
2023-03-12T13:55:52.037Z,1.40
2023-03-12T13:58:21.426Z,1.83
2023-03-12T14:00:52.346Z,1.40
2023-03-12T14:03:21.937Z,1.50
2023-03-12T14:05:52.219Z,1.60
2023-03-12T14:08:37.708Z,1.47
2023-03-12T14:11:13.689Z,1.43
2023-03-12T14:13:48.407Z,1.90
2023-03-12T14:16:21.274Z,1.80
2023-03-12T14:18:50.127Z,1.47
2023-03-12T14:21:18.471Z,1.40
2023-03-12T14:23:47.514Z,1.47
2023-03-12T14:26:18.267Z,1.40
2023-03-12T14:28:46.007Z,1.50
2023-03-12T14:31:14.659Z,1.40
2023-03-12T14:33:50.227Z,1.10
2023-03-12T14:36:18.560Z,1.30
2023-03-12T14:38:47.859Z,1.30
2023-03-12T14:41:17.707Z,1.40
2023-03-12T14:43:46.233Z,1.43
2023-03-12T14:46:17.708Z,1.20
2023-03-12T14:48:48.409Z,1.47
2023-03-12T14:51:21.601Z,1.17
2023-03-12T14:53:51.390Z,1.60
2023-03-12T14:56:24.616Z,1.80
2023-03-12T14:58:52.940Z,1.30
2023-03-12T15:01:22.308Z,1.50
2023-03-12T15:03:52.640Z,1.40
2023-03-12T15:06:22.634Z,1.47
2023-03-12T15:08:50.312Z,1.50
2023-03-12T15:11:21.647Z,2.20
2023-03-12T15:13:49.081Z,1.90
2023-03-12T15:16:16.724Z,1.30
2023-03-12T15:18:44.513Z,1.50
2023-03-12T15:21:13.321Z,1.23
2023-03-12T15:23:42.596Z,1.30
2023-03-12T15:26:11.210Z,1.20
2023-03-12T15:28:39.371Z,1.30
2023-03-12T15:31:12.486Z,1.10
2023-03-12T15:33:40.649Z,1.30
2023-03-12T15:36:21.242Z,1.70
2023-03-12T15:38:50.306Z,1.30
2023-03-12T15:41:20.259Z,1.40
2023-03-12T15:43:49.627Z,1.40
2023-03-12T15:46:22.070Z,1.40
2023-03-12T15:48:53.854Z,2.27
2023-03-12T15:51:33.323Z,1.60
2023-03-12T15:54:05.192Z,1.40
2023-03-12T15:56:35.295Z,1.30
2023-03-12T15:59:04.809Z,1.50
2023-03-12T16:01:44.411Z,1.53
2023-03-12T16:04:12.149Z,1.47
2023-03-12T16:06:42.536Z,1.73
2023-03-12T16:09:12.137Z,1.50
2023-03-12T16:11:39.513Z,1.70
2023-03-12T16:14:08.708Z,1.40
2023-03-12T16:16:36.224Z,1.60
2023-03-12T16:19:03.679Z,1.23
2023-03-12T16:21:31.108Z,1.30
2023-03-12T16:23:59.844Z,1.13
2023-03-12T16:26:27.362Z,1.10
2023-03-12T16:28:54.755Z,1.40
2023-03-12T16:31:22.332Z,1.40
2023-03-12T16:33:57.483Z,1.17
2023-03-12T16:36:25.445Z,2.77
2023-03-12T16:38:52.898Z,1.10
2023-03-12T16:41:21.688Z,1.60
2023-03-12T16:43:51.004Z,2.03
2023-03-12T16:46:20.062Z,1.43
2023-03-12T16:48:51.216Z,1.40
2023-03-12T16:51:18.665Z,1.47
2023-03-12T16:53:49.148Z,1.60
2023-03-12T16:56:23.835Z,1.20
2023-03-12T16:58:51.698Z,1.50
2023-03-12T17:01:20.916Z,1.53
2023-03-12T17:03:50.240Z,2.40
2023-03-12T17:06:19.411Z,1.30
2023-03-12T17:08:47.328Z,1.80
2023-03-12T17:11:16.375Z,1.60
2023-03-12T17:13:45.570Z,1.50
2023-03-12T17:16:13.596Z,1.53
2023-03-12T17:18:41.091Z,1.10
2023-03-12T17:21:08.493Z,1.30
2023-03-12T17:23:35.893Z,1.20
2023-03-12T17:26:03.627Z,1.20
2023-03-12T17:28:31.067Z,1.53
2023-03-12T17:30:59.862Z,1.30
2023-03-12T17:33:27.716Z,1.20
2023-03-12T17:35:59.330Z,1.50
2023-03-12T17:38:28.416Z,1.07
2023-03-12T17:40:55.838Z,1.63
2023-03-12T17:43:23.470Z,1.30
2023-03-12T17:45:51.352Z,1.50
2023-03-12T17:48:22.953Z,1.40
2023-03-12T17:50:50.609Z,1.33
2023-03-12T17:53:18.023Z,1.20
2023-03-12T17:55:45.491Z,1.20
2023-03-12T17:58:12.924Z,1.40
2023-03-12T18:00:40.293Z,1.40
2023-03-12T18:03:07.803Z,1.23
2023-03-12T18:05:38.925Z,1.60
2023-03-12T18:08:06.301Z,1.47
2023-03-12T18:10:33.812Z,1.90
2023-03-12T18:13:01.192Z,1.77
2023-03-12T18:15:28.636Z,1.43
2023-03-12T18:17:56.747Z,1.60
2023-03-12T18:20:36.195Z,1.57
2023-03-12T18:23:07.450Z,2.50
2023-03-12T18:25:34.919Z,2.17
2023-03-12T18:28:02.376Z,1.57
2023-03-12T18:30:29.835Z,1.90
2023-03-12T18:32:57.470Z,2.40
2023-03-12T18:35:28.715Z,2.30
2023-03-12T18:37:56.882Z,1.47
2023-03-12T18:40:25.747Z,1.63
2023-03-12T18:42:53.156Z,2.30
2023-03-12T18:45:20.557Z,1.60
2023-03-12T18:47:50.344Z,1.50
2023-03-12T18:50:18.010Z,1.30
2023-03-12T18:52:45.412Z,1.43
2023-03-12T18:55:15.301Z,1.40
2023-03-12T18:57:44.335Z,7.07
2023-03-12T19:00:15.843Z,7.60
2023-03-12T19:02:43.305Z,2.07
2023-03-12T19:05:11.733Z,1.80
2023-03-12T19:07:39.493Z,1.73
2023-03-12T19:10:08.238Z,1.63
2023-03-12T19:12:45.366Z,1.70
2023-03-12T19:15:19.529Z,1.23
2023-03-12T19:21:03.934Z,1.27
2023-03-12T19:23:31.388Z,1.30
2023-03-12T19:25:58.795Z,1.30
2023-03-12T19:28:26.284Z,1.30
2023-03-12T19:31:01.777Z,1.47
2023-03-12T19:33:29.913Z,1.40
2023-03-12T19:35:57.943Z,1.10
2023-03-12T19:38:25.626Z,1.57
2023-03-12T19:40:55.450Z,1.50
2023-03-12T19:43:23.512Z,1.73
2023-03-12T19:45:51.081Z,1.20
2023-03-12T19:48:19.840Z,1.60
2023-03-12T19:50:47.235Z,1.50
2023-03-12T19:53:14.819Z,1.70
2023-03-12T19:55:42.211Z,1.40
2023-03-12T19:58:09.585Z,1.50
2023-03-12T20:00:37.053Z,1.20
2023-03-12T20:03:04.964Z,1.63
2023-03-12T20:05:33.720Z,1.50
2023-03-12T20:08:01.231Z,1.40
2023-03-12T20:10:29.329Z,1.37
2023-03-12T20:12:56.791Z,1.63
2023-03-12T20:15:24.225Z,1.30
2023-03-12T20:17:54.507Z,1.37
2023-03-12T20:20:21.915Z,1.33
2023-03-12T20:22:51.514Z,1.23
2023-03-12T20:25:19.006Z,1.50
2023-03-12T20:27:47.157Z,1.20
2023-03-12T20:30:15.052Z,1.33
2023-03-12T20:32:43.576Z,1.10
2023-03-12T20:35:11.325Z,1.23
2023-03-12T20:37:38.697Z,1.30
2023-03-12T20:40:08.698Z,1.30
2023-03-12T20:42:36.230Z,1.10
2023-03-12T20:45:03.683Z,1.57
2023-03-12T20:47:31.121Z,1.23
2023-03-12T20:49:58.545Z,1.20
2023-03-12T20:52:25.916Z,1.10
2023-03-12T20:54:53.328Z,1.30
2023-03-12T20:57:22.046Z,1.23
2023-03-12T20:59:49.413Z,1.10
2023-03-12T21:02:17.037Z,1.20
2023-03-12T21:04:44.624Z,1.20
2023-03-12T21:07:17.560Z,1.10
2023-03-12T21:09:44.959Z,1.33
2023-03-12T21:12:12.351Z,1.63
2023-03-12T21:14:41.488Z,1.30
2023-03-12T21:17:13.241Z,1.30
2023-03-12T21:19:41.285Z,1.20
2023-03-12T21:22:08.685Z,1.30
2023-03-12T21:24:36.381Z,1.50
2023-03-12T21:27:03.797Z,1.43
2023-03-12T21:29:31.240Z,1.30
2023-03-12T21:31:59.953Z,1.17
2023-03-12T21:34:30.137Z,1.30
2023-03-12T21:36:57.760Z,1.50
2023-03-12T21:39:27.007Z,1.63
2023-03-12T21:41:54.479Z,1.30
2023-03-12T21:44:21.923Z,1.50
2023-03-12T21:46:49.335Z,1.20
2023-03-12T21:49:18.584Z,1.63
2023-03-12T21:51:46.363Z,1.50
2023-03-12T21:54:13.737Z,1.23
2023-03-12T21:56:41.685Z,1.10
2023-03-12T21:59:09.185Z,1.43
2023-03-12T22:01:36.651Z,1.17
2023-03-12T22:04:05.484Z,1.37
2023-03-12T22:06:34.395Z,1.40
2023-03-12T22:09:01.756Z,1.20
2023-03-12T22:11:29.185Z,1.73
2023-03-12T22:13:57.566Z,1.27
2023-03-12T22:16:25.042Z,1.20
2023-03-12T22:18:52.454Z,1.27
2023-03-12T22:21:20.831Z,1.20
2023-03-12T22:23:51.006Z,1.20
2023-03-12T22:26:18.918Z,1.00
2023-03-12T22:28:49.084Z,1.40
2023-03-12T22:31:16.530Z,1.17
2023-03-12T22:33:44.341Z,1.20
2023-03-12T22:36:13.282Z,1.30
2023-03-12T22:38:40.892Z,1.17
2023-03-12T22:41:19.739Z,1.20
2023-03-12T22:43:49.818Z,1.33
2023-03-12T22:46:17.609Z,1.30
2023-03-12T22:48:45.430Z,1.10
2023-03-12T22:51:12.827Z,1.50
2023-03-12T22:53:53.062Z,1.23
2023-03-12T22:56:33.263Z,1.23
2023-03-12T22:59:04.695Z,1.23
2023-03-12T23:01:32.220Z,1.33
2023-03-12T23:03:59.664Z,1.57
2023-03-12T23:06:29.670Z,1.30
2023-03-12T23:08:57.249Z,1.37
2023-03-12T23:11:26.100Z,1.20
2023-03-12T23:13:55.143Z,1.10
2023-03-12T23:16:23.700Z,1.20
2023-03-12T23:18:51.593Z,1.10
2023-03-12T23:21:20.451Z,1.47
2023-03-12T23:23:48.214Z,1.37
2023-03-12T23:26:16.279Z,1.40
2023-03-12T23:28:43.730Z,1.20
2023-03-12T23:31:12.573Z,1.20
2023-03-12T23:33:40.142Z,1.00
2023-03-12T23:36:08.577Z,1.13
2023-03-12T23:38:37.623Z,1.20
2023-03-12T23:41:05.737Z,1.20
2023-03-12T23:43:33.170Z,1.60
2023-03-12T23:46:01.672Z,1.30
2023-03-12T23:48:31.400Z,1.00
2023-03-12T23:51:04.737Z,1.17
2023-03-12T23:53:32.141Z,1.20
2023-03-12T23:56:00.471Z,1.00
2023-03-12T23:58:28.275Z,1.10
